ADDS METAR Data INFO
IDs: Format: Raw Decoded Include TAF

Data at: 1532 UTC 18 Jun 2018

METAR for:KSRQ (Sarasota-Bradenton I, FL, US)
Text:KSRQ 181453Z 08006KT 10SM SCT027 30/23 A3012 RMK AO2 SLP198 T03000233 51009
Temperature: 30.0°C ( 86°F)
Dewpoint: 23.3°C ( 74°F) [RH = 67%]
Pressure (altimeter):30.12 inches Hg (1020.1 mb) [Sea level pressure: 1019.8 mb]
Winds:from the E (80 degrees) at 7 MPH (6 knots; 3.1 m/s)
Visibility:10 or more sm (16+ km)
Ceiling:at least 12,000 feet AGL
Clouds: scattered clouds at 2700 feet AGL